Latest Coastal Weather Observations for Groote Eylandt Airport

IDD60701

Issued at 6:05 am CST Tuesday 29 July 2014 (issued every 10 minutes, with the page automatically refreshed every 10 minutes)

About coastal observations | Map of coastal stations | Coastal observations for NT | Marine services | Other Formats
Station Details ID: 014518 Name: GROOTE EYLANDT AIRPORT Lat: -13.97 Lon: 136.46 Height: 13.7 m
Data from the previous 72 hours. | See also: Recent months at Groote Eylandt Airport
Date/Time
CST
Temp

°C
Wind Pressure Rain
since 9am
mm
Weather Cloud Vis
km
Sea
Height
m
Swell
Dir
 
Speed
knots
Gust
knots
hPa Trend Height
m
Period
s
Dir
29/06:00am 16.6 E 0 0 1016.0 - 0.0 - - 10 - - - -
29/05:30am 16.4 CALM 0 0 1015.9 - 0.0 - - 10 - - - -
29/05:00am 16.2 CALM 0 0 1015.7 - 0.0 - - 10 - - - -
29/04:30am 16.4 CALM 0 0 1015.6 - 0.0 - - 10 - - - -
29/04:00am 16.3 CALM 0 3 1015.4 - 0.0 - - 10 - - - -
29/03:30am 16.3 CALM 0 1 1015.4 - 0.0 - - 10 - - - -
29/03:00am 16.3 E 2 4 1015.4 - 0.0 - - 10 - - - -
29/02:30am 16.7 E 2 6 1015.7 - 0.0 - - 10 - - - -
29/02:00am 17.0 CALM 0 0 1015.8 - 0.0 - - 10 - - - -
29/01:30am 17.3 CALM 0 0 1016.3 - 0.0 - - 10 - - - -
29/01:00am 17.9 CALM 0 0 1016.6 - 0.0 - - 10 - - - -
29/12:30am 17.8 CALM 0 0 1016.9 - 0.0 - - 10 - - - -
29/12:00am 18.5 E 0 0 1017.1 - 0.0 - - 10 - - - -
 
Date/Time
CST
Temp

°C
Wind Pressure Rain
since 9am
mm
Weather Cloud Vis
km
Sea
Height
m
Swell
Dir
 
Speed
knots
Gust
knots
hPa Trend Height
m
Period
s
Dir
28/11:30pm 18.5 CALM 0 0 1017.5 - 0.0 - - 10 - - - -
28/11:00pm 19.1 CALM 0 0 1017.7 - 0.0 - - 10 - - - -
28/10:30pm 19.7 CALM 0 0 1017.8 - 0.0 - - 10 - - - -
28/10:00pm 19.9 CALM 0 0 1017.7 - 0.0 - - 10 - - - -
28/09:30pm 20.4 CALM 0 0 1017.5 - 0.0 - - 10 - - - -
28/09:00pm 21.2 CALM 0 0 1017.1 - 0.0 - - 10 - - - -
28/08:30pm 21.6 CALM 0 0 1016.9 - 0.0 - - 10 - - - -
28/08:00pm 22.5 ESE 3 4 1016.4 - 0.0 - - 10 - - - -
28/07:30pm 23.0 SE 3 5 1016.0 - 0.0 - - 10 - - - -
28/07:00pm 23.6 SE 3 4 1015.6 - 0.0 - - 10 - - - -
28/06:30pm 24.5 ESE 5 8 1015.4 - 0.0 - - 10 - - - -
28/06:00pm 25.7 ESE 6 8 1014.9 - 0.0 - - 10 - - - -
28/05:30pm 27.3 E 7 10 1014.7 - 0.0 - - 10 - - - -
28/05:00pm 28.8 E 11 14 1014.5 - 0.0 - - 10 - - - -
28/04:30pm 29.5 E 11 14 1014.4 - 0.0 - - 10 - - - -
28/04:00pm 29.8 E 9 13 1014.3 - 0.0 - - 10 - - - -
28/03:30pm 30.3 E 12 16 1014.3 - 0.0 - - 10 - - - -
28/03:00pm 29.4 ESE 9 15 1014.5 - 0.0 - - 10 - - - -
28/02:30pm 31.0 E 11 15 1014.8 - 0.0 - - 10 - - - -
28/02:00pm 30.8 E 12 16 1015.1 - 0.0 - Partly cloudy 7 - - - -
28/01:30pm 30.0 ENE 12 17 1015.6 - 0.0 - Partly cloudy 10 - - - -
28/01:00pm 29.3 ENE 11 15 1015.8 - 0.0 - Partly cloudy - - - - -
28/12:54pm 29.2 ENE 12 15 1015.9 - 0.0 - Partly cloudy - - - - -
28/12:53pm 28.7 ENE 12 15 1015.9 - 0.0 - Partly cloudy - - - - -
28/12:30pm 28.4 ENE 12 16 1016.2 - 0.0 - Partly cloudy 10 - - - -
28/12:00pm 28.7 ESE 9 14 1016.5 - 0.0 - Partly cloudy 10 - - - -
28/11:30am 28.1 E 11 14 1016.9 - 0.0 - Partly cloudy 10 - - - -
28/11:00am 28.0 ESE 10 15 1017.2 - 0.0 - Partly cloudy 10 - - - -
28/10:58am 27.7 ESE 10 15 1017.2 - 0.0 - Partly cloudy 10 - - - -
28/10:39am 27.9 E 14 18 1017.3 - 0.0 - Partly cloudy 5 - - - -
28/10:30am 27.9 E 13 18 1017.4 - 0.0 - Partly cloudy 10 - - - -
28/10:00am 27.6 E 10 13 1017.6 - 0.0 - - 10 - - - -
28/09:30am 26.3 ESE 9 13 1017.6 - 0.0 - - 10 - - - -
28/09:00am 25.3 SE 5 8 1017.4 - 0.0 - - 10 - - - -
28/08:30am 21.9 SSE 1 3 1017.4 - 0.0 - - 10 - - - -
28/08:00am 20.3 CALM 0 0 1017.2 - 0.0 - Partly cloudy 10 - - - -
28/07:30am 17.4 CALM 0 0 1016.8 - 0.0 - Partly cloudy 10 - - - -
28/07:00am 15.9 CALM 0 0 1016.3 - 0.0 - - 10 - - - -
28/06:30am 16.0 CALM 0 0 1015.9 - 0.0 - - 10 - - - -
28/06:00am 16.2 CALM 0 0 1015.5 - 0.0 - - 10 - - - -
28/05:30am 16.2 CALM 0 0 1015.3 - 0.0 - - 10 - - - -
28/05:00am 16.5 CALM 0 0 1015.2 - 0.0 - - 10 - - - -
28/04:30am 16.7 CALM 0 0 1015.1 - 0.0 - - 10 - - - -
28/04:00am 16.8 CALM 0 0 1015.1 - 0.0 - - 10 - - - -
28/03:30am 16.9 CALM 0 0 1015.3 - 0.0 - Partly cloudy 10 - - - -
28/03:00am 17.1 CALM 0 0 1015.3 - 0.0 - Mostly clear 10 - - - -
28/02:30am 17.3 CALM 0 0 1015.7 - 0.0 - - 10 - - - -
28/02:00am 17.7 CALM 0 0 1016.0 - 0.0 - - 10 - - - -
28/01:30am 18.1 CALM 0 0 1016.2 - 0.0 - - 10 - - - -
28/01:00am 18.6 CALM 0 0 1016.4 - 0.0 - - 10 - - - -
28/12:30am 19.4 CALM 0 0 1016.8 - 0.0 - - 10 - - - -
28/12:00am 19.8 CALM 0 0 1016.9 - 0.0 - - 10 - - - -
 
Date/Time
CST
Temp

°C
Wind Pressure Rain
since 9am
mm
Weather Cloud Vis
km
Sea
Height
m
Swell
Dir
 
Speed
knots
Gust
knots
hPa Trend Height
m
Period
s
Dir
27/11:30pm 20.2 CALM 0 0 1017.2 - 0.0 - - 10 - - - -
27/11:00pm 20.7 SE 2 3 1017.2 - 0.0 - - 10 - - - -
27/10:30pm 21.3 ESE 3 5 1017.5 - 0.0 - - 10 - - - -
27/10:00pm 21.2 SE 3 6 1017.6 - 0.0 - - 10 - - - -
27/09:30pm 21.5 ESE 2 4 1017.5 - 0.0 - - 10 - - - -
27/09:00pm 21.7 ESE 3 4 1017.2 - 0.0 - - 10 - - - -
27/08:30pm 22.2 SE 2 3 1017.2 - 0.0 - - 10 - - - -
27/08:00pm 22.4 SSE 2 5 1017.0 - 0.0 - - 10 - - - -
27/07:30pm 23.2 ESE 3 4 1016.8 - 0.0 - - 10 - - - -
27/07:00pm 23.9 ESE 4 7 1016.4 - 0.0 - - 10 - - - -
27/06:30pm 24.3 ESE 5 7 1016.1 - 0.0 - - 10 - - - -
27/06:00pm 25.3 ESE 9 14 1015.8 - 0.0 - Mostly clear 10 - - - -
27/05:30pm 26.4 E 9 13 1015.4 - 0.0 - - 10 - - - -
27/05:00pm 27.4 ESE 7 11 1015.2 - 0.0 - Partly cloudy 10 - - - -
27/04:30pm 27.7 ESE 7 11 1014.9 - 0.0 - Partly cloudy 10 - - - -
27/04:00pm 28.5 E 10 14 1014.8 - 0.0 - Partly cloudy 10 - - - -
27/03:30pm 28.7 E 10 14 1014.8 - 0.0 - Partly cloudy 10 - - - -
27/03:00pm 29.2 ESE 8 11 1014.6 - 0.0 - Partly cloudy 10 - - - -
27/02:30pm 28.8 E 9 14 1014.9 - 0.0 - Partly cloudy 10 - - - -
27/02:00pm 28.9 ESE 9 15 1015.4 - 0.0 - Partly cloudy 10 - - - -
27/01:30pm 29.4 E 11 16 1015.9 - 0.0 - Partly cloudy 10 - - - -
27/01:00pm 28.9 ESE 9 15 1016.4 - 0.0 - - 10 - - - -
27/12:30pm 29.3 E 11 16 1016.8 - 0.0 - Partly cloudy 10 - - - -
27/12:00pm 29.3 ESE 8 14 1017.2 - 0.0 - Mostly clear 10 - - - -
27/11:30am 28.4 E 12 16 1017.5 - 0.0 - - 10 - - - -
27/11:00am 28.1 ESE 8 12 1017.9 - 0.0 - - 10 - - - -
27/10:30am 27.2 SE 9 14 1018.0 - 0.0 - - 10 - - - -
27/10:00am 26.8 SE 7 12 1018.0 - 0.0 - - 10 - - - -
27/09:30am 25.7 SSE 7 12 1018.0 - 0.0 - - 10 - - - -
27/09:00am 24.4 SE 6 10 1017.9 - 0.0 - Mostly clear 10 - - - -
27/08:30am 23.2 SSE 6 11 1018.0 - 0.0 - Cloudy 10 - - - -
27/08:00am 21.9 E 3 4 1017.7 - 0.0 - Partly cloudy 10 - - - -
27/07:30am 17.9 CALM 0 0 1017.4 - 0.0 - Partly cloudy 10 - - - -
27/07:00am 17.3 CALM 0 0 1017.2 - 0.0 - Partly cloudy 10 - - - -
27/06:30am 17.5 CALM 0 0 1016.7 - 0.0 - Partly cloudy 10 - - - -
27/06:00am 17.3 CALM 0 0 1016.4 - 0.0 - Mostly cloudy 10 - - - -
27/05:30am 17.1 CALM 0 0 1016.1 - 0.0 - - 10 - - - -
27/05:00am 17.3 CALM 0 0 1015.9 - 0.0 - - 10 - - - -
27/04:30am 17.6 CALM 0 0 1015.8 - 0.0 - Partly cloudy 10 - - - -
27/04:00am 17.6 CALM 0 0 1015.8 - 0.0 - - 10 - - - -
27/03:30am 17.8 CALM 0 0 1015.9 - 0.0 - - 10 - - - -
27/03:00am 18.0 E 3 4 1015.9 - 0.0 - - 10 - - - -
27/02:30am 18.3 CALM 0 0 1016.3 - 0.0 - Partly cloudy 10 - - - -
27/02:00am 18.5 CALM 0 0 1016.7 - 0.0 - Partly cloudy 10 - - - -
27/01:30am 18.9 CALM 0 0 1017.1 - 0.0 - - 10 - - - -
27/01:00am 19.2 CALM 0 0 1017.4 - 0.0 - - 10 - - - -
27/12:30am 19.8 CALM 0 0 1017.7 - 0.0 - Partly cloudy 10 - - - -
27/12:00am 20.0 CALM 0 0 1017.7 - 0.0 - Mostly clear 10 - - - -
 
Date/Time
CST
Temp

°C
Wind Pressure Rain
since 9am
mm
Weather Cloud Vis
km
Sea
Height
m
Swell
Dir
 
Speed
knots
Gust
knots
hPa Trend Height
m
Period
s
Dir
26/11:30pm 20.9 CALM 0 0 1018.2 - 0.0 - - 10 - - - -
26/11:00pm 21.5 SE 2 4 1018.5 - 0.0 - - 10 - - - -
26/10:30pm 21.8 ESE 3 5 1018.8 - 0.0 - - 10 - - - -
26/10:00pm 22.0 SE 3 4 1019.0 - 0.0 - - 10 - - - -
26/09:30pm 22.3 SSE 1 3 1019.1 - 0.0 - Partly cloudy 10 - - - -
26/09:00pm 22.4 SE 3 4 1018.9 - 0.0 - - 10 - - - -
26/08:30pm 22.9 SE 3 4 1018.8 - 0.0 - - 10 - - - -
26/08:00pm 23.3 SE 3 5 1018.8 - 0.0 - Partly cloudy 10 - - - -
26/07:30pm 23.6 SE 4 6 1018.5 - 0.0 - Partly cloudy 10 - - - -
26/07:00pm 24.2 ESE 5 7 1018.3 - 0.0 - Partly cloudy 10 - - - -
26/06:30pm 25.0 ESE 6 9 1018.1 - 0.0 - Cloudy 10 - - - -
26/06:00pm 25.6 ESE 7 13 1017.6 - 0.0 - Cloudy 10 - - - -
26/05:30pm 25.8 ESE 8 13 1017.5 - 0.0 - Cloudy 10 - - - -
26/05:00pm 26.2 ESE 11 17 1017.3 - 0.0 - Partly cloudy 10 - - - -
26/04:30pm 26.7 E 9 14 1016.9 - 0.0 - Partly cloudy 10 - - - -
26/04:00pm 26.7 ESE 10 16 1016.7 - 0.0 - Partly cloudy 10 - - - -
26/03:30pm 27.5 E 11 14 1016.3 - 0.0 - Partly cloudy 10 - - - -
26/03:00pm 27.9 E 13 18 1016.1 - 0.0 - Partly cloudy 10 - - - -
26/02:30pm 28.0 ESE 8 13 1016.2 - 0.0 - Cloudy 10 - - - -
26/02:00pm 27.6 ESE 9 15 1016.1 - 0.0 - Partly cloudy 10 - - - -
26/01:30pm 28.6 E 12 17 1016.3 - 0.0 - Partly cloudy 10 - - - -
26/01:00pm 29.6 E 12 21 1016.7 - 0.0 - Partly cloudy 10 - - - -
26/12:30pm 28.9 E 15 22 1017.1 - 0.0 - Partly cloudy 10 - - - -
26/12:00pm 29.2 E 14 21 1017.5 - 0.0 - Partly cloudy 10 - - - -
26/11:30am 28.2 E 13 19 1017.8 - 0.0 - Partly cloudy 10 - - - -
26/11:00am 27.9 E 13 19 1018.0 - 0.0 - Partly cloudy 10 - - - -
26/10:30am 27.7 ESE 10 14 1018.2 - 0.0 - Partly cloudy 10 - - - -
26/10:00am 26.9 E 14 21 1018.2 - 0.0 - - 9 - - - -
26/09:30am 26.4 ESE 10 15 1018.5 - 0.0 - - 10 - - - -
26/09:00am 25.3 ESE 8 14 1018.4 - 0.0 - - 10 - - - -
26/08:30am 24.3 ESE 7 10 1018.3 - 0.0 - - 10 - - - -
26/08:00am 22.2 ESE 3 5 1018.1 - 0.0 - - 10 - - - -
26/07:30am 20.7 ESE 4 5 1017.8 - 0.0 - - 10 - - - -
26/07:00am 19.2 ESE 3 4 1017.4 - 0.0 - - 10 - - - -
26/06:30am 19.1 E 3 4 1017.2 - 0.0 - - 10 - - - -

Other Formats:

Comma delimited format used in spreadsheet applications
http://www.bom.gov.au/fwo/IDD60701/IDD60701.94153.axf

JavaScript Object Notation format (JSON) in row-major order
http://www.bom.gov.au/fwo/IDD60701/IDD60701.94153.json